Time;durP1;ratioP1;P1;durP2;ratioP2;P2;SDS_P1;SDS_P2;PMS_P1;PMS_P2;Temp;Humidity;BMP_temperature;BMP_pressure;BME280_temperature;BME280_humidity;BME280_pressure;Samples;Min_cycle;Max_cycle;Signal;HPM_P1;HPM_P2
2022/05/28 00:01:03;;;;;;;7.57;0.73;;;;;;;13.88;58.04;102311.72;4995651;28;100798;-33
2022/05/28 00:03:29;;;;;;;3.97;0.55;;;;;;;13.89;58.46;102316.19;4998245;28;101172;-32
2022/05/28 00:05:56;;;;;;;0.95;0.40;;;;;;;13.85;58.42;102306.44;5014670;28;96817;-33
2022/05/28 00:08:21;;;;;;;0.68;0.25;;;;;;;13.86;58.55;102305.47;5029084;28;96870;-33
2022/05/28 00:10:47;;;;;;;3.90;0.77;;;;;;;13.87;58.68;102311.78;5013794;28;97985;-34
2022/05/28 00:13:12;;;;;;;1.13;0.50;;;;;;;13.91;58.51;102318.84;5014117;28;97477;-33
2022/05/28 00:15:44;;;;;;;1.17;0.45;;;;;;;13.89;59.42;102310.75;5013433;28;96561;-33
2022/05/28 00:18:10;;;;;;;0.80;0.47;;;;;;;13.89;59.10;102318.91;5013663;28;97159;-33
2022/05/28 00:20:36;;;;;;;2.67;0.80;;;;;;;13.81;60.21;102310.28;5011720;28;100574;-33
2022/05/28 00:23:02;;;;;;;0.93;0.55;;;;;;;13.83;59.57;102302.91;4995100;28;100761;-33
2022/05/28 00:25:28;;;;;;;1.48;0.45;;;;;;;13.85;59.66;102308.25;5012261;28;96750;-33
2022/05/28 00:27:54;;;;;;;1.58;0.38;;;;;;;13.79;59.59;102295.84;5013397;28;96786;-33
2022/05/28 00:30:20;;;;;;;0.90;0.47;;;;;;;13.81;59.31;102299.38;5013613;28;96999;-33
2022/05/28 00:32:45;;;;;;;0.47;0.15;;;;;;;13.80;60.56;102295.78;4995427;28;100747;-33
2022/05/28 00:35:16;;;;;;;0.50;0.15;;;;;;;13.84;60.27;102301.06;5013857;28;96522;-33
2022/05/28 00:37:43;;;;;;;0.40;0.30;;;;;;;13.77;59.91;102290.47;4979116;28;96938;-33
2022/05/28 00:40:21;;;;;;;1.65;0.60;;;;;;;13.90;59.78;102298.03;4995144;28;101227;-33
2022/05/28 00:42:47;;;;;;;2.60;0.60;;;;;;;13.80;59.99;102293.06;4995196;28;103163;-33
2022/05/28 00:45:12;;;;;;;1.85;0.52;;;;;;;13.84;60.29;102301.06;5012980;28;96576;-33
2022/05/28 00:47:43;;;;;;;2.70;0.88;;;;;;;13.82;60.39;102295.69;5011916;28;96845;-33
2022/05/28 00:50:09;;;;;;;2.67;0.80;;;;;;;13.76;60.55;102294.19;4995015;28;100601;-33
2022/05/28 00:52:36;;;;;;;1.58;0.30;;;;;;;13.76;60.48;102293.31;4994959;28;102113;-33
2022/05/28 00:55:03;;;;;;;0.65;0.20;;;;;;;13.72;60.43;102294.41;5013262;28;96526;-33
2022/05/28 00:57:28;;;;;;;1.10;0.45;;;;;;;13.72;60.78;102295.28;4995182;28;97066;-33
2022/05/28 00:59:54;;;;;;;1.75;0.32;;;;;;;13.71;60.81;102296.25;5013090;28;97845;-33
2022/05/28 01:02:33;;;;;;;1.70;0.38;;;;;;;13.73;60.62;102301.59;5013187;28;98825;-34
2022/05/28 01:05:10;;;;;;;1.33;0.45;;;;;;;13.71;60.82;102296.25;4994613;28;96767;-33
2022/05/28 01:07:49;;;;;;;1.55;0.45;;;;;;;13.67;61.53;102291.03;4995040;28;96616;-33
2022/05/28 01:10:57;;;;;;;1.02;0.57;;;;;;;13.71;61.29;102298.97;4994240;28;100755;-33
2022/05/28 01:13:29;;;;;;;1.77;0.28;;;;;;;13.71;60.04;102303.56;4994742;28;101024;-33
2022/05/28 01:16:09;;;;;;;3.00;0.50;;;;;;;13.68;60.90;102301.88;4994922;28;96673;-33
2022/05/28 01:18:59;;;;;;;0.95;0.40;;;;;;;13.68;61.38;102301.88;4994914;28;96818;-33
2022/05/28 01:21:44;;;;;;;3.92;0.70;;;;;;;13.64;61.53;102297.53;4994574;28;100996;-33
2022/05/28 01:24:36;;;;;;;6.18;0.75;;;;;;;13.66;61.89;102309.22;4994652;28;100842;-33
2022/05/28 01:27:13;;;;;;;3.35;0.30;;;;;;;13.58;61.46;102298.72;5010434;28;96546;-33
2022/05/28 01:29:48;;;;;;;1.80;0.50;;;;;;;13.55;61.48;102290.72;5012834;28;96613;-33
2022/05/28 01:32:15;;;;;;;4.55;0.57;;;;;;;13.62;61.91;102296.72;4994532;28;100790;-33
2022/05/28 01:34:42;;;;;;;2.30;0.60;;;;;;;13.61;61.82;102297.69;4994414;28;100782;-33
2022/05/28 01:37:10;;;;;;;3.30;0.68;;;;;;;13.57;61.86;102296.09;4994031;28;97575;-33
2022/05/28 01:39:38;;;;;;;4.60;0.47;;;;;;;13.55;61.66;102296.16;4994483;28;97063;-33
2022/05/28 01:42:06;;;;;;;1.27;0.52;;;;;;;13.51;61.78;102288.22;4994083;28;101039;-33
2022/05/28 01:44:33;;;;;;;3.30;0.45;;;;;;;13.54;61.73;102293.53;4994361;28;101187;-33
2022/05/28 01:46:58;;;;;;;0.10;0.05;;;;;;;13.50;62.73;102292.78;4994404;28;96755;-33
2022/05/28 01:49:25;;;;;;;0.20;0.20;;;;;;;13.54;62.13;102293.53;5011791;28;112102;-33
2022/05/28 01:51:54;;;;;;;1.20;0.20;;;;;;;13.48;62.38;102289.25;4994305;28;100995;-33
2022/05/28 01:54:44;;;;;;;4.72;0.57;;;;;;;13.54;63.17;102297.13;5012556;28;97381;-33
2022/05/28 01:57:12;;;;;;;1.50;0.45;;;;;;;13.50;62.77;102283.75;5012278;28;96716;-33
2022/05/28 01:59:37;;;;;;;2.95;0.55;;;;;;;13.46;63.40;102280.28;5012413;28;96821;-33
2022/05/28 02:02:06;;;;;;;0.55;0.28;;;;;;;13.48;62.91;102285.66;5011443;28;107385;-33
2022/05/28 02:04:32;;;;;;;0.47;0.38;;;;;;;13.51;62.66;102290.94;5001375;28;100845;-33
2022/05/28 02:06:58;;;;;;;1.20;0.32;;;;;;;13.48;63.07;102281.09;5014034;28;96628;-33
2022/05/28 02:09:31;;;;;;;1.45;0.55;;;;;;;13.46;63.37;102280.28;5032149;28;96796;-33
2022/05/28 02:12:36;;;;;;;2.05;0.40;;;;;;;13.50;63.10;102281.03;5030300;28;101281;-33
2022/05/28 02:15:05;;;;;;;2.20;0.47;;;;;;;13.47;63.15;102279.34;5032035;28;97300;-33
2022/05/28 02:17:50;;;;;;;4.35;0.70;;;;;;;13.48;63.95;102281.09;5030480;28;96814;-33
2022/05/28 02:20:44;;;;;;;1.67;0.38;;;;;;;13.48;64.66;102280.22;5032564;28;96848;-33
2022/05/28 02:23:18;;;;;;;2.85;0.52;;;;;;;13.45;63.33;102278.53;5013766;28;101343;-33
2022/05/28 02:25:54;;;;;;;3.33;0.60;;;;;;;13.40;63.34;102263.41;5030155;28;109816;-34
2022/05/28 02:28:23;;;;;;;1.45;0.45;;;;;;;13.40;63.52;102263.41;5030038;28;97193;-33
2022/05/28 02:30:52;;;;;;;2.83;0.63;;;;;;;13.41;63.71;102276.91;5032040;28;96798;-33
2022/05/28 02:33:19;;;;;;;1.38;0.35;;;;;;;13.42;64.28;102283.22;5031718;28;98150;-33
2022/05/28 02:35:44;;;;;;;4.75;0.82;;;;;;;13.37;63.69;102272.56;5013573;28;100895;-33
2022/05/28 02:38:14;;;;;;;1.60;0.22;;;;;;;13.35;64.28;102277.25;5032180;27;96643;-34
2022/05/28 02:40:40;;;;;;;5.68;0.50;;;;;;;13.31;63.56;102264.75;5017182;28;96848;-33
2022/05/28 02:43:05;;;;;;;1.05;0.50;;;;;;;13.34;63.83;102276.34;5033706;28;99767;-33
2022/05/28 02:45:31;;;;;;;1.75;0.35;;;;;;;13.33;64.31;102276.44;5035115;28;110394;-33
2022/05/28 02:47:56;;;;;;;1.63;0.40;;;;;;;13.24;64.41;102264.13;5035042;28;108197;-33
2022/05/28 02:50:22;;;;;;;3.55;0.55;;;;;;;13.23;63.86;102269.63;5035403;28;96775;-33
2022/05/28 02:52:48;;;;;;;1.50;0.30;;;;;;;13.25;64.23;102278.59;5032950;28;101387;-33
2022/05/28 02:55:13;;;;;;;3.75;0.50;;;;;;;13.20;64.25;102270.66;5035282;28;97801;-33
2022/05/28 02:57:38;;;;;;;2.85;0.80;;;;;;;13.17;64.17;102262.66;5016539;28;112383;-33
2022/05/28 03:00:06;;;;;;;3.45;0.38;;;;;;;13.14;64.27;102269.16;5034717;28;118266;-33
2022/05/28 03:02:32;;;;;;;2.58;0.45;;;;;;;13.13;64.61;102263.78;5034849;28;97019;-33
2022/05/28 03:04:58;;;;;;;0.68;0.15;;;;;;;13.10;64.21;102264.81;5033106;28;100893;-33
2022/05/28 03:07:23;;;;;;;2.63;0.45;;;;;;;13.10;64.46;102263.94;5034699;28;96514;-33
2022/05/28 03:09:48;;;;;;;1.80;0.52;;;;;;;13.13;64.69;102277.38;5035486;28;96842;-33
2022/05/28 03:12:14;;;;;;;1.55;0.50;;;;;;;13.12;64.10;102279.22;5033578;28;124484;-33
2022/05/28 03:14:39;;;;;;;3.55;0.47;;;;;;;13.05;64.65;102269.59;5034218;28;113021;-33
2022/05/28 03:17:04;;;;;;;2.33;0.15;;;;;;;13.08;64.08;102277.59;5034192;28;100391;-33
2022/05/28 03:19:29;;;;;;;2.22;0.47;;;;;;;13.08;64.23;102288.47;5035081;28;96760;-33
2022/05/28 03:21:55;;;;;;;0.65;0.22;;;;;;;13.02;64.66;102268.88;5033887;28;119250;-34
2022/05/28 03:24:20;;;;;;;1.17;0.25;;;;;;;12.99;64.21;102280.78;5034699;28;97413;-33
2022/05/28 03:26:46;;;;;;;1.13;0.35;;;;;;;12.99;64.32;102280.78;5034362;28;104052;-33
2022/05/28 03:29:11;;;;;;;0.17;0.17;;;;;;;12.99;64.62;102280.78;5016029;28;109389;-33
2022/05/28 03:31:37;;;;;;;5.43;0.65;;;;;;;12.91;64.57;102275.69;5033992;28;117141;-33
2022/05/28 03:34:02;;;;;;;1.65;0.35;;;;;;;12.91;64.42;102283.00;5016209;28;121406;-33
2022/05/28 03:36:29;;;;;;;1.80;0.35;;;;;;;12.85;65.11;102275.16;5034335;28;108224;-33
2022/05/28 03:38:55;;;;;;;0.85;0.30;;;;;;;12.90;64.40;102292.13;5033080;28;96840;-33
2022/05/28 03:41:20;;;;;;;2.85;0.47;;;;;;;12.88;64.73;102294.91;5015551;28;100819;-33
2022/05/28 03:43:46;;;;;;;1.48;0.13;;;;;;;12.83;64.85;102279.78;5034423;28;97462;-33
2022/05/28 03:46:27;;;;;;;2.53;0.30;;;;;;;12.88;64.40;102299.47;5016236;28;96716;-33
2022/05/28 03:48:57;;;;;;;4.50;0.30;;;;;;;12.88;64.33;102289.47;5015710;28;96808;-33
2022/05/28 03:51:23;;;;;;;1.55;0.30;;;;;;;12.83;63.86;102291.53;5015935;28;99169;-33
2022/05/28 03:53:48;;;;;;;0.22;0.10;;;;;;;12.87;63.91;102292.25;5034142;28;99117;-33
2022/05/28 03:56:14;;;;;;;1.75;0.50;;;;;;;12.82;63.86;102283.44;5034194;28;96766;-33
2022/05/28 03:58:39;;;;;;;1.38;0.30;;;;;;;12.79;64.18;102286.31;5034437;28;96834;-33
2022/05/28 04:01:04;;;;;;;1.23;0.08;;;;;;;12.77;64.15;102289.09;5033223;28;122637;-33
2022/05/28 04:03:30;;;;;;;0.73;0.22;;;;;;;12.79;64.02;102300.78;5033997;28;97779;-33
2022/05/28 04:05:56;;;;;;;3.67;0.38;;;;;;;12.74;63.72;102292.84;5013657;28;96873;-33
2022/05/28 04:08:23;;;;;;;0.52;0.20;;;;;;;12.79;63.96;102294.47;4996023;28;96968;-33
2022/05/28 04:10:48;;;;;;;0.28;0.13;;;;;;;12.73;64.42;102296.53;5013790;28;97493;-34
2022/05/28 04:13:13;;;;;;;0.50;0.17;;;;;;;12.72;63.88;102294.75;5013620;28;105381;-33
2022/05/28 04:15:38;;;;;;;5.18;0.30;;;;;;;12.70;63.61;102291.25;5013017;28;121970;-33
2022/05/28 04:18:05;;;;;;;0.55;0.30;;;;;;;12.66;63.93;102299.59;5013969;28;97248;-33
2022/05/28 04:20:31;;;;;;;1.85;0.30;;;;;;;12.72;63.55;102310.19;5013439;28;98004;-33
2022/05/28 04:22:56;;;;;;;5.95;0.38;;;;;;;12.70;63.76;102307.56;5014071;28;97764;-33
2022/05/28 04:25:21;;;;;;;0.95;0.10;;;;;;;12.60;63.89;102292.59;5013443;28;102289;-33
2022/05/28 04:27:46;;;;;;;0.95;0.15;;;;;;;12.67;63.53;102312.22;5013694;28;96841;-33
2022/05/28 04:30:12;;;;;;;0.73;0.30;;;;;;;12.60;63.39;102306.19;5012167;28;126724;-33
2022/05/28 04:32:37;;;;;;;1.55;0.30;;;;;;;12.62;63.34;102306.13;5013498;28;97856;-33
2022/05/28 04:35:03;;;;;;;0.52;0.13;;;;;;;12.66;64.00;102319.50;5012698;28;119068;-33
2022/05/28 04:37:28;;;;;;;2.38;0.43;;;;;;;12.63;63.03;102316.94;5013819;28;96836;-33
2022/05/28 04:39:54;;;;;;;0.43;0.25;;;;;;;12.62;63.38;102317.88;5013424;28;97497;-33
2022/05/28 04:42:19;;;;;;;0.10;0.10;;;;;;;12.62;62.96;102311.56;5012846;28;112486;-33
2022/05/28 04:44:44;;;;;;;1.13;0.10;;;;;;;12.64;62.77;102318.69;5012915;28;109531;-33
2022/05/28 04:47:09;;;;;;;0.95;0.17;;;;;;;12.63;62.87;102316.94;5013747;28;98449;-33
2022/05/28 04:49:35;;;;;;;2.15;0.40;;;;;;;12.61;62.95;102310.69;5011768;28;128753;-33
2022/05/28 04:52:00;;;;;;;1.63;0.20;;;;;;;12.58;62.96;102307.22;5012300;28;118134;-33
2022/05/28 04:54:25;;;;;;;0.20;0.20;;;;;;;12.63;62.51;102322.38;5012980;28;96541;-33
2022/05/28 04:56:51;;;;;;;2.10;0.20;;;;;;;12.69;62.47;102332.94;5012813;28;111412;-33
2022/05/28 04:59:16;;;;;;;0.52;0.20;;;;;;;12.61;62.62;102309.78;5013099;28;98297;-33
2022/05/28 05:01:41;;;;;;;1.55;0.13;;;;;;;12.67;62.84;102323.09;5011866;28;100493;-33
2022/05/28 05:04:07;;;;;;;6.43;0.60;;;;;;;12.64;62.10;102323.25;5012453;28;98647;-33
2022/05/28 05:06:32;;;;;;;1.45;0.10;;;;;;;12.68;62.27;102324.84;5012454;28;114138;-33
2022/05/28 05:08:57;;;;;;;1.65;0.38;;;;;;;12.66;62.27;102330.38;5012915;28;97509;-33
2022/05/28 05:11:23;;;;;;;0.43;0.10;;;;;;;12.72;62.20;102332.81;5012918;28;100551;-33
2022/05/28 05:13:48;;;;;;;0.43;0.17;;;;;;;12.75;62.13;102338.13;5012622;28;106053;-33
2022/05/28 05:16:16;;;;;;;0.75;0.08;;;;;;;12.80;62.01;102337.00;5013031;28;96791;-33
2022/05/28 05:18:42;;;;;;;1.33;0.28;;;;;;;12.81;61.89;102333.34;4993969;28;101103;-34
2022/05/28 05:21:08;;;;;;;3.92;0.55;;;;;;;12.89;61.82;102350.16;4994407;28;101240;-33
2022/05/28 05:23:33;;;;;;;0.17;0.10;;;;;;;12.92;61.78;102341.88;5012882;28;96526;-33
2022/05/28 05:25:59;;;;;;;0.50;0.08;;;;;;;12.92;61.88;102350.03;5013009;28;96759;-33
2022/05/28 05:28:34;;;;;;;0.90;0.20;;;;;;;12.97;61.59;102347.97;4994434;28;101490;-33
2022/05/28 05:30:59;;;;;;;2.45;0.32;;;;;;;12.91;61.54;102340.09;5011989;28;125417;-33
2022/05/28 05:33:24;;;;;;;4.15;0.40;;;;;;;13.01;61.45;102338.69;5011388;28;120241;-33
2022/05/28 05:35:49;;;;;;;3.05;0.68;;;;;;;13.13;61.40;102346.28;5012128;28;118647;-33
2022/05/28 05:38:15;;;;;;;0.70;0.20;;;;;;;13.13;61.19;102346.28;5011194;28;128248;-33
2022/05/28 05:40:40;;;;;;;3.25;0.47;;;;;;;13.16;61.21;102346.13;5012280;28;99686;-33
2022/05/28 05:43:06;;;;;;;2.83;0.40;;;;;;;13.22;60.83;102346.78;5012009;28;96539;-33
2022/05/28 05:45:31;;;;;;;2.35;0.40;;;;;;;13.21;60.83;102345.03;5012509;28;96793;-33
2022/05/28 05:47:56;;;;;;;0.32;0.20;;;;;;;13.17;60.82;102353.34;5012199;28;97918;-34
2022/05/28 05:50:22;;;;;;;0.32;0.17;;;;;;;13.14;60.61;102360.78;5010411;28;121778;-33
2022/05/28 05:52:48;;;;;;;0.55;0.03;;;;;;;13.13;60.38;102357.19;4994389;28;96726;-33
2022/05/28 05:55:13;;;;;;;2.75;0.52;;;;;;;13.18;60.13;102354.25;5012551;28;96836;-33
2022/05/28 05:57:39;;;;;;;6.97;0.57;;;;;;;13.22;60.48;102355.84;5012196;28;97936;-33
2022/05/28 06:00:05;;;;;;;0.25;0.15;;;;;;;13.20;60.43;102365.91;5012542;28;97642;-33
2022/05/28 06:02:30;;;;;;;0.30;0.30;;;;;;;13.13;60.57;102356.28;5011853;28;96547;-33
2022/05/28 06:04:58;;;;;;;0.30;0.13;;;;;;;13.21;60.81;102364.09;5011402;28;96772;-33
2022/05/28 06:07:25;;;;;;;0.10;0.10;;;;;;;13.20;60.75;102376.78;4993793;28;97052;-33
2022/05/28 06:09:50;;;;;;;1.38;0.22;;;;;;;13.16;61.11;102369.75;4993328;28;100832;-33
2022/05/28 06:12:16;;;;;;;0.63;0.25;;;;;;;13.11;60.93;102374.53;5010733;28;120838;-33
2022/05/28 06:14:41;;;;;;;0.38;0.10;;;;;;;13.20;60.90;102381.34;5012428;28;97576;-33
2022/05/28 06:17:07;;;;;;;1.25;0.20;;;;;;;13.18;60.86;102360.56;5011624;28;98138;-33
2022/05/28 06:19:32;;;;;;;0.93;0.40;;;;;;;13.33;60.76;102378.00;5012111;28;97825;-33
2022/05/28 06:22:01;;;;;;;1.05;0.40;;;;;;;13.33;60.46;102378.00;5010163;28;103981;-33
2022/05/28 06:24:27;;;;;;;3.50;0.57;;;;;;;13.27;60.63;102367.41;5012132;28;96741;-33
2022/05/28 06:26:53;;;;;;;1.23;0.20;;;;;;;13.36;60.54;102360.63;4993533;28;101527;-33
2022/05/28 06:29:18;;;;;;;1.73;0.25;;;;;;;13.59;60.28;102367.69;4993650;28;100862;-33
2022/05/28 06:31:43;;;;;;;0.98;0.30;;;;;;;13.81;59.79;102367.47;5011389;28;96683;-33
2022/05/28 06:34:09;;;;;;;2.63;0.65;;;;;;;14.01;59.15;102364.63;5011099;28;114767;-33
2022/05/28 06:36:34;;;;;;;2.28;0.35;;;;;;;14.18;58.94;102362.84;5010549;28;125825;-33
2022/05/28 06:38:59;;;;;;;0.15;0.15;;;;;;;14.52;58.42;102382.88;5011714;28;97803;-33
2022/05/28 06:41:25;;;;;;;1.33;0.32;;;;;;;14.54;57.75;102351.88;5011536;28;108180;-33
2022/05/28 06:43:51;;;;;;;0.00;0.00;;;;;;;14.62;56.94;102373.25;5011386;28;108321;-33
2022/05/28 06:46:16;;;;;;;5.35;0.60;;;;;;;14.51;57.29;102360.16;5011218;28;98784;-33
2022/05/28 06:48:42;;;;;;;2.78;0.90;;;;;;;14.33;57.86;102386.56;5011454;28;115253;-33
2022/05/28 06:51:07;;;;;;;1.23;0.35;;;;;;;14.20;57.34;102388.16;5011732;28;96720;-33
2022/05/28 06:53:41;;;;;;;3.05;0.30;;;;;;;14.25;57.56;102372.44;5012027;28;96827;-33
2022/05/28 06:56:09;;;;;;;2.22;0.32;;;;;;;14.50;57.49;102373.91;4993011;28;100859;-33
2022/05/28 06:58:35;;;;;;;1.08;0.20;;;;;;;14.72;57.13;102370.91;4993427;28;100891;-33
2022/05/28 07:01:02;;;;;;;8.82;0.55;;;;;;;14.96;56.71;102379.59;4993328;28;96600;-33
2022/05/28 07:03:28;;;;;;;1.10;0.35;;;;;;;15.19;56.82;102371.00;4993586;28;96900;-33
2022/05/28 07:05:55;;;;;;;0.63;0.22;;;;;;;15.41;55.85;102377.97;5010882;28;99129;-33
2022/05/28 07:08:21;;;;;;;4.13;0.45;;;;;;;15.42;55.27;102377.88;5026338;28;101189;-33
2022/05/28 07:10:50;;;;;;;0.77;0.15;;;;;;;15.57;55.13;102384.31;5011449;28;96608;-33
2022/05/28 07:13:17;;;;;;;2.28;0.40;;;;;;;15.43;55.73;102389.69;4993559;28;96807;-33
2022/05/28 07:15:42;;;;;;;4.90;0.65;;;;;;;15.02;55.54;102379.25;5010998;28;99157;-33
2022/05/28 07:18:08;;;;;;;0.80;0.22;;;;;;;14.86;55.97;102380.09;4992420;28;123964;-33
2022/05/28 07:20:34;;;;;;;0.22;0.10;;;;;;;15.01;55.85;102389.28;5010766;28;96658;-33
2022/05/28 07:23:07;;;;;;;1.02;0.10;;;;;;;14.99;55.94;102390.31;4993153;28;96887;-33
2022/05/28 07:25:33;;;;;;;0.55;0.17;;;;;;;15.12;55.87;102390.53;4995603;28;101056;-34
2022/05/28 07:27:59;;;;;;;0.75;0.25;;;;;;;15.32;55.23;102379.34;5027328;28;98800;-34
2022/05/28 07:30:24;;;;;;;1.55;0.40;;;;;;;15.27;55.28;102396.00;5013846;28;96765;-33
2022/05/28 07:32:49;;;;;;;2.53;0.43;;;;;;;15.05;55.91;102390.00;5014205;28;96679;-33
2022/05/28 07:35:15;;;;;;;3.75;0.63;;;;;;;14.91;55.71;102389.88;5013951;28;97855;-33
2022/05/28 07:37:40;;;;;;;1.90;0.47;;;;;;;14.77;55.91;102399.69;5013965;28;99368;-34
2022/05/28 07:40:06;;;;;;;0.55;0.28;;;;;;;14.61;56.60;102402.38;5013811;28;96681;-33
2022/05/28 07:42:31;;;;;;;6.13;0.63;;;;;;;14.57;56.68;102391.72;4995829;28;97052;-33
2022/05/28 07:44:56;;;;;;;1.73;0.63;;;;;;;14.71;56.28;102400.03;5013891;28;97956;-33
2022/05/28 07:47:22;;;;;;;3.83;0.47;;;;;;;14.74;56.22;102404.44;5014016;28;99207;-33
2022/05/28 07:49:47;;;;;;;1.92;0.45;;;;;;;14.88;56.04;102392.78;5014422;28;96693;-33
2022/05/28 07:52:12;;;;;;;6.97;0.93;;;;;;;15.14;55.05;102388.63;5013387;28;121673;-33
2022/05/28 07:54:37;;;;;;;1.48;0.60;;;;;;;15.58;53.89;102390.66;5013385;28;119550;-33
2022/05/28 07:57:04;;;;;;;0.20;0.10;;;;;;;15.80;53.21;102390.28;5013593;28;110105;-33
2022/05/28 07:59:29;;;;;;;0.93;0.35;;;;;;;15.79;52.42;102399.47;4996005;28;97336;-33
2022/05/28 08:01:55;;;;;;;0.52;0.20;;;;;;;15.71;52.07;102395.34;5014309;28;96857;-33
2022/05/28 08:04:21;;;;;;;1.17;0.28;;;;;;;15.89;52.84;102392.50;5013062;28;99563;-33
2022/05/28 08:06:46;;;;;;;1.13;0.50;;;;;;;16.16;52.39;102384.50;5013902;28;97915;-33
2022/05/28 08:09:12;;;;;;;0.28;0.15;;;;;;;16.30;52.71;102394.56;5013424;28;96523;-33
2022/05/28 08:11:38;;;;;;;1.52;0.40;;;;;;;16.18;52.30;102392.59;5011993;28;96919;-33
2022/05/28 08:14:04;;;;;;;1.63;0.50;;;;;;;16.25;52.03;102399.44;5013801;28;97415;-33
2022/05/28 08:16:29;;;;;;;2.25;0.40;;;;;;;16.47;51.81;102399.00;4995690;28;100803;-33
2022/05/28 08:18:55;;;;;;;2.47;0.40;;;;;;;16.66;51.34;102393.28;5013500;28;97719;-33
2022/05/28 08:24:05;;;;;;;8.52;0.70;;;;;;;16.49;51.39;102397.97;5013787;28;96792;-33
2022/05/28 08:26:31;;;;;;;2.05;0.60;;;;;;;16.08;51.70;102404.09;5013753;28;100913;-33
2022/05/28 08:28:56;;;;;;;2.03;0.30;;;;;;;15.83;52.48;102403.81;5013839;28;96496;-33
2022/05/28 08:31:22;;;;;;;1.55;0.30;;;;;;;16.08;52.57;102400.47;5013872;28;96769;-33
2022/05/28 08:33:49;;;;;;;2.55;0.50;;;;;;;16.18;51.78;102387.13;5013106;28;97539;-33
2022/05/28 08:36:15;;;;;;;0.52;0.20;;;;;;;16.17;51.61;102396.31;4995157;28;99049;-33
2022/05/28 08:38:41;;;;;;;2.40;0.30;;;;;;;15.89;50.74;102395.22;5011955;28;96756;-33
2022/05/28 08:41:13;;;;;;;1.77;0.38;;;;;;;15.74;51.57;102398.88;4995290;28;96833;-33
2022/05/28 08:43:44;;;;;;;1.30;0.38;;;;;;;15.90;49.88;102394.28;4995228;28;100744;-33
2022/05/28 08:46:12;;;;;;;2.30;0.60;;;;;;;16.24;50.28;102392.22;4995155;28;101242;-33
2022/05/28 08:48:59;;;;;;;3.05;0.43;;;;;;;16.67;48.04;102395.06;4995152;28;96638;-33
2022/05/28 08:51:37;;;;;;;1.02;0.35;;;;;;;16.86;48.93;102394.81;4995583;28;97070;-33
2022/05/28 08:54:18;;;;;;;1.13;0.60;;;;;;;17.18;47.97;102400.94;5011673;28;101449;-33
2022/05/28 08:56:44;;;;;;;2.45;0.30;;;;;;;17.32;47.23;102387.22;5013426;28;97803;-33
2022/05/28 08:59:20;;;;;;;1.90;0.40;;;;;;;17.03;46.92;102391.88;4994629;28;97208;-33
2022/05/28 09:01:46;;;;;;;2.67;1.00;;;;;;;16.72;48.16;102392.91;5013064;28;96832;-33
2022/05/28 09:04:17;;;;;;;2.75;0.40;;;;;;;16.47;49.75;102397.19;4994218;28;100794;-33
2022/05/28 09:06:46;;;;;;;2.85;0.38;;;;;;;16.40;49.74;102406.75;4994893;28;101204;-33
2022/05/28 09:09:14;;;;;;;2.53;0.52;;;;;;;16.50;50.51;102409.78;4994969;28;96543;-33
2022/05/28 09:11:46;;;;;;;6.18;0.90;;;;;;;16.55;50.92;102410.38;4994914;28;96846;-33
2022/05/28 09:14:29;;;;;;;;;;;;;;;16.44;50.68;102419.22;4995080;28;101015;-33
2022/05/28 09:16:59;;;;;;;2.92;0.40;;;;;;;16.21;51.08;102409.72;5013340;28;97260;-33
2022/05/28 09:19:30;;;;;;;0.65;0.40;;;;;;;16.05;51.17;102406.13;4994750;28;96500;-33
2022/05/28 09:21:55;;;;;;;2.77;0.60;;;;;;;16.18;51.50;102419.94;4994700;28;96683;-33
2022/05/28 09:24:40;;;;;;;1.05;0.35;;;;;;;16.43;50.85;102411.13;5027811;28;97971;-33
2022/05/28 09:27:40;;;;;;;2.42;0.60;;;;;;;16.49;50.11;102427.16;5012347;28;98293;-33
2022/05/28 09:30:20;;;;;;;2.60;0.68;;;;;;;16.36;51.11;102421.56;5012703;28;96633;-33
2022/05/28 09:32:56;;;;;;;2.28;0.40;;;;;;;16.16;51.19;102411.84;4994667;28;96785;-33
2022/05/28 09:35:59;;;;;;;2.05;0.40;;;;;;;16.40;51.15;102419.50;5011322;28;100576;-33
2022/05/28 09:38:39;;;;;;;1.45;0.60;;;;;;;16.74;49.81;102408.25;5012360;28;99228;-33
2022/05/28 09:41:04;;;;;;;5.88;0.73;;;;;;;17.06;49.87;102409.94;5011305;28;96549;-33
2022/05/28 09:43:57;;;;;;;0.83;0.40;;;;;;;17.31;49.25;102418.34;5012447;28;97847;-33
2022/05/28 09:46:36;;;;;;;0.82;0.32;;;;;;;17.65;48.57;102394.22;5010848;28;99252;-33
2022/05/28 09:49:05;;;;;;;2.83;0.73;;;;;;;17.88;48.50;102383.59;5012171;28;99397;-33
2022/05/28 09:51:33;;;;;;;4.82;0.68;;;;;;;18.11;47.66;102399.34;4993575;28;97360;-34
2022/05/28 09:54:23;;;;;;;1.77;0.43;;;;;;;18.36;47.03;102386.69;4994252;28;97096;-33
2022/05/28 09:56:58;;;;;;;0.30;0.15;;;;;;;18.20;47.44;102389.59;4994148;28;101363;-33
2022/05/28 09:59:28;;;;;;;7.38;0.75;;;;;;;17.91;46.26;102387.00;5010682;28;101178;-33
2022/05/28 10:02:21;;;;;;;4.07;0.73;;;;;;;17.88;47.39;102389.97;4994134;28;96592;-33
2022/05/28 10:04:58;;;;;;;2.08;0.55;;;;;;;18.18;46.99;102392.44;5011573;28;96749;-33
2022/05/28 10:07:30;;;;;;;4.68;0.80;;;;;;;18.42;44.94;102388.97;4993838;28;100598;-33
2022/05/28 10:09:56;;;;;;;1.55;0.40;;;;;;;18.47;44.99;102381.28;5012291;28;98871;-33
2022/05/28 10:12:26;;;;;;;1.92;0.35;;;;;;;18.84;44.80;102396.06;5011552;28;96733;-34
2022/05/28 10:15:11;;;;;;;3.50;0.70;;;;;;;18.52;44.63;102386.47;4994008;28;96861;-33
2022/05/28 10:17:36;;;;;;;2.58;0.60;;;;;;;18.53;45.85;102399.22;5011597;28;97971;-33
2022/05/28 10:20:13;;;;;;;1.48;0.47;;;;;;;18.93;44.98;102382.69;4993902;28;100836;-33
2022/05/28 10:22:39;;;;;;;2.17;0.57;;;;;;;18.90;45.19;102378.25;5012086;28;96593;-33
2022/05/28 10:25:13;;;;;;;2.80;0.32;;;;;;;18.40;44.69;102378.13;5011937;28;96845;-33
2022/05/28 10:27:49;;;;;;;4.20;0.68;;;;;;;18.33;45.75;102386.88;4993620;28;101605;-33
2022/05/28 10:30:26;;;;;;;0.60;0.40;;;;;;;18.03;43.99;102385.28;4993712;28;100935;-33
2022/05/28 10:32:52;;;;;;;1.73;0.38;;;;;;;18.35;42.90;102384.91;5011928;28;96623;-33
2022/05/28 10:35:26;;;;;;;1.67;0.68;;;;;;;18.50;43.29;102385.72;4993873;28;96855;-34
2022/05/28 10:37:53;;;;;;;1.00;0.30;;;;;;;18.58;41.67;102389.66;5010182;28;101094;-32
2022/05/28 10:40:20;;;;;;;2.67;0.52;;;;;;;18.78;43.23;102390.13;4993534;28;101188;-33
2022/05/28 10:42:47;;;;;;;3.15;0.38;;;;;;;18.94;41.73;102390.78;5010633;28;96629;-34
2022/05/28 10:45:17;;;;;;;3.97;0.52;;;;;;;18.98;42.49;102381.34;4993921;28;96954;-33
2022/05/28 10:48:07;;;;;;;0.30;0.20;;;;;;;18.48;43.89;102391.31;4993534;28;100664;-33
2022/05/28 10:51:00;;;;;;;6.45;0.50;;;;;;;18.02;42.45;102400.00;5011603;28;97569;-33
2022/05/28 10:53:35;;;;;;;1.50;0.80;;;;;;;18.19;43.10;102386.00;4993203;28;96650;-34
2022/05/28 10:56:15;;;;;;;2.33;0.25;;;;;;;18.49;42.10;102383.94;5010343;28;96740;-34
2022/05/28 10:58:49;;;;;;;0.57;0.10;;;;;;;18.70;42.24;102384.28;5010159;28;114470;-34
2022/05/28 11:01:33;;;;;;;4.07;0.43;;;;;;;19.07;41.37;102382.56;4996972;28;100812;-33
2022/05/28 11:04:13;;;;;;;0.90;0.32;;;;;;;19.15;40.33;102387.47;5014394;28;96809;-33
2022/05/28 11:06:53;;;;;;;1.40;0.35;;;;;;;19.42;41.24;102382.66;5015021;28;96520;-33
2022/05/28 11:09:27;;;;;;;0.30;0.25;;;;;;;19.69;41.17;102390.78;5014629;28;98015;-33
2022/05/28 11:12:26;;;;;;;1.55;0.50;;;;;;;19.25;41.68;102391.28;4996469;28;101034;-33
2022/05/28 11:15:00;;;;;;;1.10;0.43;;;;;;;18.71;42.22;102380.53;4990290;28;96898;-34
2022/05/28 11:17:57;;;;;;;0.80;0.45;;;;;;;18.58;41.41;102384.16;5014699;28;96679;-33
2022/05/28 11:20:36;;;;;;;2.72;0.43;;;;;;;18.81;42.47;102374.34;5014764;28;98129;-33
2022/05/28 11:23:22;;;;;;;1.05;0.35;;;;;;;19.02;41.75;102384.72;5014340;28;99279;-33
2022/05/28 11:26:02;;;;;;;1.08;0.43;;;;;;;19.02;40.78;102382.88;5014307;28;109711;-33
2022/05/28 11:28:58;;;;;;;2.20;0.32;;;;;;;19.23;40.86;102390.53;5013286;28;96734;-33
2022/05/28 11:31:26;;;;;;;1.45;0.60;;;;;;;19.31;39.73;102378.00;5013177;28;101047;-33
2022/05/28 11:33:55;;;;;;;3.25;0.65;;;;;;;19.06;41.50;102378.03;5014237;28;97277;-33
2022/05/28 11:36:36;;;;;;;1.85;0.63;;;;;;;19.24;40.90;102375.81;4995878;28;96757;-33